KMFR/MFR METAR and TAF weather

Enter ICAO airport designator
Station Type Date Time Source
KMFR METAR 2020/01/18 23:53 UTC NOAA

KMFR 182353Z 33004KT 10SM OVC049 08/03 A3028 RMK AO2 SLP261 T00830028 10089 20044 53002


Station Type Date Time Source
KMFR Decoded METAR 2020/01/18 23:53 UTC NOAA

ROGUE VALLEY INTERNATIONAL AIRPORT, OR, United States (KMFR) 42-23N 122-53W 396M
Jan 18, 2020 - 06:53 PM EST / 2020.01.18 2353 UTC
Wind: from the NNW (330 degrees) at 5 MPH (4 KT):0
Visibility: 10 mile(s):0
Sky conditions: overcast
Temperature: 46.9 F (8.3 C)
Dew Point: 37.0 F (2.8 C)
Relative Humidity: 68%
Pressure (altimeter): 30.28 in. Hg (1025 hPa)
Pressure tendency: 0.01 inches (0.2 hPa) higher than three hours ago
ob: KMFR 182353Z 33004KT 10SM OVC049 08/03 A3028 RMK AO2 SLP261 T00830028 10089 20044 53002
cycle: 0

Station Type Date Time Source
KMFR TAF 2020/01/18 18:48 UTC NOAA

TAF KMFR 181745Z 1818/1918 VRB03KT 6SM -SHRA BR OVC050 WS020/20040KT
FM182200 VRB04KT P6SM VCSH BKN050
FM190300 VRB04KT P6SM BKN060

Example: see airport list